sensor_id;sensor_type;location;lat;lon;timestamp;pressure;altitude;pressure_sealevel;temperature;humidity
42705;BME280;28342;42.594;23.414;2023-07-20T04:59:08;94224.28;;;22.48;65.05
42705;BME280;28342;42.594;23.414;2023-07-20T05:01:33;94224.31;;;22.27;65.97
42705;BME280;28342;42.594;23.414;2023-07-20T05:03:59;94228.97;;;22.23;67.36
42705;BME280;28342;42.594;23.414;2023-07-20T05:06:24;94221.59;;;21.81;69.57
42705;BME280;28342;42.594;23.414;2023-07-20T05:08:51;94209.63;;;21.64;70.00
42705;BME280;28342;42.594;23.414;2023-07-20T05:11:16;94215.81;;;21.75;70.57
42705;BME280;28342;42.594;23.414;2023-07-20T05:13:44;94223.50;;;21.69;70.05
42705;BME280;28342;42.594;23.414;2023-07-20T05:16:09;94218.09;;;21.69;70.43
42705;BME280;28342;42.594;23.414;2023-07-20T05:18:35;94225.81;;;21.74;68.23
42705;BME280;28342;42.594;23.414;2023-07-20T05:21:00;94217.34;;;21.69;69.80
42705;BME280;28342;42.594;23.414;2023-07-20T05:23:26;94215.41;;;21.69;68.96
42705;BME280;28342;42.594;23.414;2023-07-20T05:25:58;94179.16;;;21.56;70.17
42705;BME280;28342;42.594;23.414;2023-07-20T05:28:24;94206.94;;;21.82;72.10
42705;BME280;28342;42.594;23.414;2023-07-20T05:30:51;94207.34;;;21.91;69.42
42705;BME280;28342;42.594;23.414;2023-07-20T05:33:18;94217.38;;;21.94;71.03
42705;BME280;28342;42.594;23.414;2023-07-20T05:35:44;94207.34;;;21.91;69.82
42705;BME280;28342;42.594;23.414;2023-07-20T05:38:09;94214.28;;;21.95;69.21
42705;BME280;28342;42.594;23.414;2023-07-20T05:40:40;94226.25;;;22.05;68.81
42705;BME280;28342;42.594;23.414;2023-07-20T05:43:06;94212.31;;;22.03;70.66
42705;BME280;28342;42.594;23.414;2023-07-20T05:45:31;94218.16;;;22.12;69.99
42705;BME280;28342;42.594;23.414;2023-07-20T05:47:57;94226.66;;;22.21;69.66
42705;BME280;28342;42.594;23.414;2023-07-20T05:50:26;94222.75;;;22.29;69.75
42705;BME280;28342;42.594;23.414;2023-07-20T05:52:52;94237.38;;;22.50;68.85
42705;BME280;28342;42.594;23.414;2023-07-20T05:55:18;94234.31;;;22.58;69.62
42705;BME280;28342;42.594;23.414;2023-07-20T05:57:43;94234.28;;;22.69;67.47
42705;BME280;28342;42.594;23.414;2023-07-20T06:00:09;94245.47;;;22.71;67.59
42705;BME280;28342;42.594;23.414;2023-07-20T06:02:35;94236.56;;;22.78;68.17
42705;BME280;28342;42.594;23.414;2023-07-20T06:05:00;94233.09;;;22.84;67.80
42705;BME280;28342;42.594;23.414;2023-07-20T06:07:26;94190.25;;;22.65;67.04
42705;BME280;28342;42.594;23.414;2023-07-20T06:09:52;94206.03;;;22.88;67.37
42705;BME280;28342;42.594;23.414;2023-07-20T06:12:17;94218.31;;;23.10;67.85
42705;BME280;28342;42.594;23.414;2023-07-20T06:14:45;94226.03;;;23.12;67.62
42705;BME280;28342;42.594;23.414;2023-07-20T06:17:13;94217.84;;;23.26;65.92
42705;BME280;28342;42.594;23.414;2023-07-20T06:19:39;94227.88;;;23.33;65.12
42705;BME280;28342;42.594;23.414;2023-07-20T06:22:04;94227.03;;;23.46;65.77
42705;BME280;28342;42.594;23.414;2023-07-20T06:24:30;94222.34;;;23.50;66.47
42705;BME280;28342;42.594;23.414;2023-07-20T06:26:55;94218.47;;;23.62;66.22
42705;BME280;28342;42.594;23.414;2023-07-20T06:29:21;94211.84;;;23.67;65.35
42705;BME280;28342;42.594;23.414;2023-07-20T06:31:47;94210.22;;;23.80;65.36
42705;BME280;28342;42.594;23.414;2023-07-20T06:34:12;94196.59;;;23.87;63.02
42705;BME280;28342;42.594;23.414;2023-07-20T06:36:38;94197.25;;;24.02;63.18
42705;BME280;28342;42.594;23.414;2023-07-20T06:39:03;94202.16;;;24.18;63.86
42705;BME280;28342;42.594;23.414;2023-07-20T06:41:29;94197.50;;;24.22;61.70
42705;BME280;28342;42.594;23.414;2023-07-20T06:43:54;94219.06;;;24.36;62.38
42705;BME280;28342;42.594;23.414;2023-07-20T06:46:24;94205.75;;;24.52;62.06
42705;BME280;28342;42.594;23.414;2023-07-20T06:48:50;94188.25;;;24.57;63.17
42705;BME280;28342;42.594;23.414;2023-07-20T06:51:16;94195.03;;;24.76;62.88
42705;BME280;28342;42.594;23.414;2023-07-20T06:54:03;94208.69;;;25.02;62.32
42705;BME280;28342;42.594;23.414;2023-07-20T06:56:31;94215.06;;;25.19;61.49
42705;BME280;28342;42.594;23.414;2023-07-20T06:58:57;94195.19;;;25.29;61.37
42705;BME280;28342;42.594;23.414;2023-07-20T07:01:23;94202.94;;;25.58;63.72
42705;BME280;28342;42.594;23.414;2023-07-20T07:03:48;94204.88;;;25.84;60.16
42705;BME280;28342;42.594;23.414;2023-07-20T07:06:14;94221.22;;;26.08;59.61
42705;BME280;28342;42.594;23.414;2023-07-20T07:08:42;94221.41;;;26.44;61.49
42705;BME280;28342;42.594;23.414;2023-07-20T07:11:12;94223.91;;;26.78;60.05
42705;BME280;28342;42.594;23.414;2023-07-20T07:13:38;94233.03;;;27.11;57.18
42705;BME280;28342;42.594;23.414;2023-07-20T07:16:03;94232.16;;;27.34;57.73
42705;BME280;28342;42.594;23.414;2023-07-20T07:18:29;94249.19;;;27.38;54.44
42705;BME280;28342;42.594;23.414;2023-07-20T07:20:54;94234.84;;;27.18;56.62
42705;BME280;28342;42.594;23.414;2023-07-20T07:23:20;94232.66;;;27.09;54.20
42705;BME280;28342;42.594;23.414;2023-07-20T07:25:46;94247.41;;;27.12;54.18
42705;BME280;28342;42.594;23.414;2023-07-20T07:28:11;94273.56;;;27.25;55.12
42705;BME280;28342;42.594;23.414;2023-07-20T07:30:37;94281.88;;;27.58;53.53
42705;BME280;28342;42.594;23.414;2023-07-20T07:33:02;94290.56;;;27.73;55.44
42705;BME280;28342;42.594;23.414;2023-07-20T07:35:28;94274.72;;;27.84;50.96
42705;BME280;28342;42.594;23.414;2023-07-20T07:37:54;94278.75;;;28.12;51.95
42705;BME280;28342;42.594;23.414;2023-07-20T07:40:19;94282.28;;;28.28;53.92
42705;BME280;28342;42.594;23.414;2023-07-20T07:42:44;94284.94;;;28.48;51.45
42705;BME280;28342;42.594;23.414;2023-07-20T07:45:10;94269.50;;;28.58;50.69
42705;BME280;28342;42.594;23.414;2023-07-20T07:47:35;94269.13;;;28.89;49.47
42705;BME280;28342;42.594;23.414;2023-07-20T07:50:02;94247.94;;;28.93;52.66
42705;BME280;28342;42.594;23.414;2023-07-20T07:52:29;94247.50;;;29.10;49.77
42705;BME280;28342;42.594;23.414;2023-07-20T07:54:55;94264.19;;;29.41;49.34
42705;BME280;28342;42.594;23.414;2023-07-20T07:57:21;94252.34;;;29.32;47.13
42705;BME280;28342;42.594;23.414;2023-07-20T07:59:48;94228.50;;;29.61;47.25
42705;BME280;28342;42.594;23.414;2023-07-20T08:02:14;94227.84;;;29.83;45.82
42705;BME280;28342;42.594;23.414;2023-07-20T08:04:39;94217.34;;;29.94;45.29
42705;BME280;28342;42.594;23.414;2023-07-20T08:07:05;94227.63;;;30.02;45.10
42705;BME280;28342;42.594;23.414;2023-07-20T08:09:30;94204.78;;;30.22;46.87
42705;BME280;28342;42.594;23.414;2023-07-20T08:11:56;94217.50;;;30.50;47.93
42705;BME280;28342;42.594;23.414;2023-07-20T08:14:21;94234.69;;;30.63;46.78
42705;BME280;28342;42.594;23.414;2023-07-20T08:16:47;94244.00;;;30.66;45.59
42705;BME280;28342;42.594;23.414;2023-07-20T08:19:12;94242.97;;;30.73;45.50
42705;BME280;28342;42.594;23.414;2023-07-20T08:21:38;94262.31;;;30.91;46.66
42705;BME280;28342;42.594;23.414;2023-07-20T08:24:03;94264.00;;;31.10;44.81
42705;BME280;28342;42.594;23.414;2023-07-20T08:26:29;94239.75;;;30.87;48.26
42705;BME280;28342;42.594;23.414;2023-07-20T08:28:54;94232.88;;;31.04;45.97
42705;BME280;28342;42.594;23.414;2023-07-20T08:31:20;94261.53;;;31.25;44.63
42705;BME280;28342;42.594;23.414;2023-07-20T08:33:45;94254.75;;;31.39;44.14
42705;BME280;28342;42.594;23.414;2023-07-20T08:36:11;94259.41;;;31.51;44.68
42705;BME280;28342;42.594;23.414;2023-07-20T08:38:36;94242.63;;;31.71;43.39
42705;BME280;28342;42.594;23.414;2023-07-20T08:41:01;94247.56;;;31.76;44.16
42705;BME280;28342;42.594;23.414;2023-07-20T08:43:27;94249.72;;;31.59;44.19
42705;BME280;28342;42.594;23.414;2023-07-20T08:46:01;94266.56;;;31.27;44.65
42705;BME280;28342;42.594;23.414;2023-07-20T08:48:27;94250.75;;;31.31;45.46
42705;BME280;28342;42.594;23.414;2023-07-20T08:50:53;94264.16;;;31.29;45.03
42705;BME280;28342;42.594;23.414;2023-07-20T08:53:21;94268.38;;;31.08;44.36
42705;BME280;28342;42.594;23.414;2023-07-20T08:55:50;94256.00;;;30.81;45.73
42705;BME280;28342;42.594;23.414;2023-07-20T08:58:20;94278.13;;;30.61;41.73
42705;BME280;28342;42.594;23.414;2023-07-20T09:00:48;94272.09;;;30.79;42.17
42705;BME280;28342;42.594;23.414;2023-07-20T09:03:16;94266.88;;;30.47;41.06
42705;BME280;28342;42.594;23.414;2023-07-20T09:05:44;94258.63;;;30.59;42.73
42705;BME280;28342;42.594;23.414;2023-07-20T09:08:09;94265.66;;;30.73;41.43
42705;BME280;28342;42.594;23.414;2023-07-20T09:10:35;94258.94;;;30.87;40.72
42705;BME280;28342;42.594;23.414;2023-07-20T09:13:00;94262.06;;;30.98;42.20
42705;BME280;28342;42.594;23.414;2023-07-20T09:15:26;94263.59;;;30.99;40.71
42705;BME280;28342;42.594;23.414;2023-07-20T09:17:52;94252.00;;;30.95;39.60
42705;BME280;28342;42.594;23.414;2023-07-20T09:20:19;94249.00;;;31.02;39.85
42705;BME280;28342;42.594;23.414;2023-07-20T09:22:46;94251.91;;;31.20;38.53
42705;BME280;28342;42.594;23.414;2023-07-20T09:25:15;94256.41;;;31.14;39.53
42705;BME280;28342;42.594;23.414;2023-07-20T09:27:42;94236.13;;;31.25;39.23
42705;BME280;28342;42.594;23.414;2023-07-20T09:30:16;94226.81;;;31.53;38.69
42705;BME280;28342;42.594;23.414;2023-07-20T09:32:46;94231.53;;;31.52;37.81
42705;BME280;28342;42.594;23.414;2023-07-20T09:35:13;94245.88;;;31.78;38.95
42705;BME280;28342;42.594;23.414;2023-07-20T09:37:40;94247.16;;;31.87;38.10
42705;BME280;28342;42.594;23.414;2023-07-20T09:40:07;94250.19;;;31.89;37.36
42705;BME280;28342;42.594;23.414;2023-07-20T09:42:35;94253.88;;;31.95;38.89
42705;BME280;28342;42.594;23.414;2023-07-20T09:45:01;94249.66;;;32.03;38.31
42705;BME280;28342;42.594;23.414;2023-07-20T09:47:27;94228.63;;;32.09;37.92
42705;BME280;28342;42.594;23.414;2023-07-20T09:50:00;94222.56;;;32.23;38.30
42705;BME280;28342;42.594;23.414;2023-07-20T09:52:26;94233.34;;;32.58;37.01
42705;BME280;28342;42.594;23.414;2023-07-20T09:54:52;94236.72;;;32.71;37.30
42705;BME280;28342;42.594;23.414;2023-07-20T09:57:27;94218.69;;;32.52;35.80
42705;BME280;28342;42.594;23.414;2023-07-20T09:59:59;94220.22;;;32.62;35.80
42705;BME280;28342;42.594;23.414;2023-07-20T10:02:32;94226.06;;;32.82;38.42
42705;BME280;28342;42.594;23.414;2023-07-20T10:05:02;94201.63;;;33.03;35.35
42705;BME280;28342;42.594;23.414;2023-07-20T10:07:30;94192.34;;;32.91;35.00
42705;BME280;28342;42.594;23.414;2023-07-20T10:09:59;94193.72;;;32.86;36.49
42705;BME280;28342;42.594;23.414;2023-07-20T10:12:27;94190.03;;;32.71;37.96
42705;BME280;28342;42.594;23.414;2023-07-20T10:15:23;94178.41;;;32.39;38.01
42705;BME280;28342;42.594;23.414;2023-07-20T10:20:40;94204.22;;;32.02;37.86
42705;BME280;28342;42.594;23.414;2023-07-20T10:23:09;94197.13;;;31.83;36.45
42705;BME280;28342;42.594;23.414;2023-07-20T10:25:35;94203.78;;;31.72;37.63
42705;BME280;28342;42.594;23.414;2023-07-20T10:28:06;94203.88;;;31.91;38.02
42705;BME280;28342;42.594;23.414;2023-07-20T10:30:36;94203.78;;;32.13;38.43
42705;BME280;28342;42.594;23.414;2023-07-20T10:33:03;94216.78;;;32.21;35.13
42705;BME280;28342;42.594;23.414;2023-07-20T10:35:28;94229.06;;;32.48;37.03
42705;BME280;28342;42.594;23.414;2023-07-20T10:37:59;94215.59;;;32.31;37.08
42705;BME280;28342;42.594;23.414;2023-07-20T10:40:29;94216.84;;;32.39;35.22
42705;BME280;28342;42.594;23.414;2023-07-20T10:43:08;94200.81;;;32.29;34.74
42705;BME280;28342;42.594;23.414;2023-07-20T10:45:49;94193.97;;;32.61;35.96
42705;BME280;28342;42.594;23.414;2023-07-20T10:48:24;94191.13;;;33.01;35.47
42705;BME280;28342;42.594;23.414;2023-07-20T10:51:13;94184.81;;;33.28;35.61
42705;BME280;28342;42.594;23.414;2023-07-20T10:53:41;94194.41;;;33.33;35.69
42705;BME280;28342;42.594;23.414;2023-07-20T10:56:14;94158.31;;;32.97;34.02
42705;BME280;28342;42.594;23.414;2023-07-20T10:58:45;94138.19;;;32.82;34.47
42705;BME280;28342;42.594;23.414;2023-07-20T11:01:17;94136.31;;;32.70;34.02
42705;BME280;28342;42.594;23.414;2023-07-20T11:03:49;94147.13;;;32.46;36.87
42705;BME280;28342;42.594;23.414;2023-07-20T11:08:56;94157.91;;;32.13;37.44
42705;BME280;28342;42.594;23.414;2023-07-20T11:11:26;94128.47;;;31.95;36.33
42705;BME280;28342;42.594;23.414;2023-07-20T11:14:00;94116.09;;;31.91;35.61
42705;BME280;28342;42.594;23.414;2023-07-20T11:16:45;94125.28;;;32.15;36.27
42705;BME280;28342;42.594;23.414;2023-07-20T11:21:45;94106.13;;;32.43;35.08
42705;BME280;28342;42.594;23.414;2023-07-20T11:24:15;94122.91;;;32.54;35.82
42705;BME280;28342;42.594;23.414;2023-07-20T11:29:12;94137.38;;;33.00;36.65
42705;BME280;28342;42.594;23.414;2023-07-20T11:31:39;94122.06;;;33.26;34.92
42705;BME280;28342;42.594;23.414;2023-07-20T11:34:05;94109.66;;;33.31;33.24
42705;BME280;28342;42.594;23.414;2023-07-20T11:36:34;94119.06;;;33.57;35.01
42705;BME280;28342;42.594;23.414;2023-07-20T11:38:59;94114.41;;;33.73;34.30
42705;BME280;28342;42.594;23.414;2023-07-20T11:41:25;94101.19;;;33.53;32.88
42705;BME280;28342;42.594;23.414;2023-07-20T11:43:54;94106.50;;;33.66;33.32
42705;BME280;28342;42.594;23.414;2023-07-20T11:46:20;94093.09;;;33.58;33.41
42705;BME280;28342;42.594;23.414;2023-07-20T11:48:45;94099.84;;;33.81;32.27
42705;BME280;28342;42.594;23.414;2023-07-20T11:51:15;94080.81;;;33.36;33.66
42705;BME280;28342;42.594;23.414;2023-07-20T11:53:42;94051.47;;;32.90;33.65
42705;BME280;28342;42.594;23.414;2023-07-20T11:56:08;94083.97;;;33.01;33.71
42705;BME280;28342;42.594;23.414;2023-07-20T11:58:33;94073.03;;;33.34;34.83
42705;BME280;28342;42.594;23.414;2023-07-20T12:00:59;94057.13;;;33.38;33.46
42705;BME280;28342;42.594;23.414;2023-07-20T12:03:24;94071.69;;;33.63;33.26
42705;BME280;28342;42.594;23.414;2023-07-20T12:05:50;94066.53;;;33.89;34.66
42705;BME280;28342;42.594;23.414;2023-07-20T12:08:16;94058.84;;;34.16;34.04
42705;BME280;28342;42.594;23.414;2023-07-20T12:10:41;94058.69;;;34.35;32.99
42705;BME280;28342;42.594;23.414;2023-07-20T12:13:10;94058.66;;;34.59;33.00
42705;BME280;28342;42.594;23.414;2023-07-20T12:15:37;94045.84;;;34.70;33.70
42705;BME280;28342;42.594;23.414;2023-07-20T12:18:03;94056.97;;;35.05;34.63
42705;BME280;28342;42.594;23.414;2023-07-20T12:20:34;94035.78;;;35.12;33.39
42705;BME280;28342;42.594;23.414;2023-07-20T12:23:13;94034.13;;;35.34;32.13
42705;BME280;28342;42.594;23.414;2023-07-20T12:25:40;94039.28;;;35.27;31.74
42705;BME280;28342;42.594;23.414;2023-07-20T12:28:13;94023.22;;;35.25;32.83
42705;BME280;28342;42.594;23.414;2023-07-20T12:30:42;94027.00;;;35.43;32.40
42705;BME280;28342;42.594;23.414;2023-07-20T12:33:09;94030.25;;;35.26;30.82
42705;BME280;28342;42.594;23.414;2023-07-20T12:35:35;94032.91;;;35.36;29.82
42705;BME280;28342;42.594;23.414;2023-07-20T12:38:00;94019.88;;;35.21;29.05
42705;BME280;28342;42.594;23.414;2023-07-20T12:40:27;94021.34;;;35.02;29.61
42705;BME280;28342;42.594;23.414;2023-07-20T12:42:54;94025.91;;;35.05;29.28
42705;BME280;28342;42.594;23.414;2023-07-20T12:45:19;94029.09;;;35.18;29.43
42705;BME280;28342;42.594;23.414;2023-07-20T12:47:46;94025.34;;;35.01;28.96
42705;BME280;28342;42.594;23.414;2023-07-20T12:50:12;94027.59;;;35.17;30.63
42705;BME280;28342;42.594;23.414;2023-07-20T12:52:39;94010.88;;;34.91;29.47
42705;BME280;28342;42.594;23.414;2023-07-20T12:55:06;94016.41;;;34.91;28.24
42705;BME280;28342;42.594;23.414;2023-07-20T12:57:33;94026.28;;;34.98;28.57
42705;BME280;28342;42.594;23.414;2023-07-20T12:59:58;94015.09;;;34.87;29.08
42705;BME280;28342;42.594;23.414;2023-07-20T13:02:24;94022.28;;;34.84;29.00
42705;BME280;28342;42.594;23.414;2023-07-20T13:04:49;94015.81;;;34.72;29.27
42705;BME280;28342;42.594;23.414;2023-07-20T13:07:15;94008.81;;;34.86;29.50
42705;BME280;28342;42.594;23.414;2023-07-20T13:09:40;94002.16;;;34.93;28.93
42705;BME280;28342;42.594;23.414;2023-07-20T13:12:06;93990.19;;;34.66;28.57
42705;BME280;28342;42.594;23.414;2023-07-20T13:14:32;93991.22;;;34.54;29.07
42705;BME280;28342;42.594;23.414;2023-07-20T13:16:57;93998.72;;;34.68;29.16
42705;BME280;28342;42.594;23.414;2023-07-20T13:19:25;93993.03;;;34.57;28.41
42705;BME280;28342;42.594;23.414;2023-07-20T13:21:51;93997.56;;;34.60;28.55
42705;BME280;28342;42.594;23.414;2023-07-20T13:24:16;94002.72;;;34.67;29.32
42705;BME280;28342;42.594;23.414;2023-07-20T13:26:42;94006.91;;;34.78;29.60
42705;BME280;28342;42.594;23.414;2023-07-20T13:29:08;93985.22;;;34.70;28.75
42705;BME280;28342;42.594;23.414;2023-07-20T13:31:33;93996.66;;;34.63;28.32
42705;BME280;28342;42.594;23.414;2023-07-20T13:33:59;93996.81;;;34.74;30.27
42705;BME280;28342;42.594;23.414;2023-07-20T13:36:24;94000.34;;;34.90;29.58
42705;BME280;28342;42.594;23.414;2023-07-20T13:38:51;93988.47;;;34.84;30.10
42705;BME280;28342;42.594;23.414;2023-07-20T13:41:16;93997.69;;;34.81;29.83
42705;BME280;28342;42.594;23.414;2023-07-20T13:43:47;94002.16;;;34.93;30.09
42705;BME280;28342;42.594;23.414;2023-07-20T13:46:13;93987.50;;;34.72;30.19
42705;BME280;28342;42.594;23.414;2023-07-20T13:48:38;93978.69;;;34.53;31.04
42705;BME280;28342;42.594;23.414;2023-07-20T13:51:04;93987.72;;;34.54;31.18
42705;BME280;28342;42.594;23.414;2023-07-20T13:53:31;94004.63;;;34.47;30.91
42705;BME280;28342;42.594;23.414;2023-07-20T13:55:58;93992.47;;;34.53;31.14
42705;BME280;28342;42.594;23.414;2023-07-20T13:58:24;94005.38;;;34.47;31.00
42705;BME280;28342;42.594;23.414;2023-07-20T14:00:52;94001.47;;;34.54;30.94
42705;BME280;28342;42.594;23.414;2023-07-20T14:03:17;93975.88;;;34.24;31.62
42705;BME280;28342;42.594;23.414;2023-07-20T14:05:43;93984.03;;;34.03;32.59
42705;BME280;28342;42.594;23.414;2023-07-20T14:08:09;93980.88;;;33.72;32.27
42705;BME280;28342;42.594;23.414;2023-07-20T14:10:34;93983.59;;;33.48;32.71
42705;BME280;28342;42.594;23.414;2023-07-20T14:12:59;94000.66;;;33.61;33.05
42705;BME280;28342;42.594;23.414;2023-07-20T14:15:25;94002.28;;;33.68;33.61
42705;BME280;28342;42.594;23.414;2023-07-20T14:17:51;93993.91;;;33.62;33.07
42705;BME280;28342;42.594;23.414;2023-07-20T14:20:17;94008.44;;;33.63;32.35
42705;BME280;28342;42.594;23.414;2023-07-20T14:22:42;93997.72;;;33.65;34.05
42705;BME280;28342;42.594;23.414;2023-07-20T14:25:09;93980.00;;;33.42;32.97
42705;BME280;28342;42.594;23.414;2023-07-20T14:27:35;93997.28;;;33.33;32.08
42705;BME280;28342;42.594;23.414;2023-07-20T14:30:00;93986.25;;;33.09;31.74
42705;BME280;28342;42.594;23.414;2023-07-20T14:32:26;93976.25;;;32.88;33.18
42705;BME280;28342;42.594;23.414;2023-07-20T14:34:51;93975.03;;;32.80;32.56
42705;BME280;28342;42.594;23.414;2023-07-20T14:37:17;93995.94;;;32.86;31.81
42705;BME280;28342;42.594;23.414;2023-07-20T14:39:42;94005.09;;;32.74;32.33
42705;BME280;28342;42.594;23.414;2023-07-20T14:42:07;93993.22;;;32.59;32.71
42705;BME280;28342;42.594;23.414;2023-07-20T14:44:33;94001.34;;;32.53;32.71
42705;BME280;28342;42.594;23.414;2023-07-20T14:47:00;94005.59;;;32.54;32.61
42705;BME280;28342;42.594;23.414;2023-07-20T14:49:26;93974.69;;;32.17;32.91
42705;BME280;28342;42.594;23.414;2023-07-20T14:51:52;94000.16;;;32.08;33.38
42705;BME280;28342;42.594;23.414;2023-07-20T14:54:18;94003.03;;;31.96;33.49
42705;BME280;28342;42.594;23.414;2023-07-20T14:56:52;93993.44;;;32.00;34.26
42705;BME280;28342;42.594;23.414;2023-07-20T14:59:18;93995.09;;;31.98;34.03
42705;BME280;28342;42.594;23.414;2023-07-20T15:01:44;94019.22;;;32.03;34.09
42705;BME280;28342;42.594;23.414;2023-07-20T15:04:15;94002.72;;;31.94;34.70
42705;BME280;28342;42.594;23.414;2023-07-20T15:06:43;93988.84;;;31.97;35.12
42705;BME280;28342;42.594;23.414;2023-07-20T15:09:08;94011.56;;;32.07;35.01
42705;BME280;28342;42.594;23.414;2023-07-20T15:11:35;94013.41;;;32.10;35.18
42705;BME280;28342;42.594;23.414;2023-07-20T15:14:07;94012.19;;;32.02;34.37
42705;BME280;28342;42.594;23.414;2023-07-20T15:16:34;94006.56;;;31.87;35.22
42705;BME280;28342;42.594;23.414;2023-07-20T15:19:02;94006.06;;;31.79;36.05
42705;BME280;28342;42.594;23.414;2023-07-20T15:21:28;94011.28;;;31.87;36.25
42705;BME280;28342;42.594;23.414;2023-07-20T15:23:57;94018.56;;;31.80;36.21
42705;BME280;28342;42.594;23.414;2023-07-20T15:26:24;94030.75;;;31.79;36.35
42705;BME280;28342;42.594;23.414;2023-07-20T15:28:51;94019.28;;;31.63;36.76
42705;BME280;28342;42.594;23.414;2023-07-20T15:31:19;94018.50;;;31.62;37.32
42705;BME280;28342;42.594;23.414;2023-07-20T15:33:48;94013.47;;;31.51;37.88
42705;BME280;28342;42.594;23.414;2023-07-20T15:36:15;94017.84;;;31.31;37.61
42705;BME280;28342;42.594;23.414;2023-07-20T15:38:40;94026.06;;;31.31;37.94
42705;BME280;28342;42.594;23.414;2023-07-20T15:41:06;94025.16;;;31.34;37.86
42705;BME280;28342;42.594;23.414;2023-07-20T15:43:31;94022.41;;;31.25;38.43
42705;BME280;28342;42.594;23.414;2023-07-20T15:46:02;94003.28;;;31.12;38.12
42705;BME280;28342;42.594;23.414;2023-07-20T15:48:39;94024.34;;;30.93;38.31
42705;BME280;28342;42.594;23.414;2023-07-20T15:51:04;94028.72;;;31.12;38.95
42705;BME280;28342;42.594;23.414;2023-07-20T15:53:30;94021.72;;;30.80;38.85
42705;BME280;28342;42.594;23.414;2023-07-20T15:55:55;94036.28;;;30.77;38.40
42705;BME280;28342;42.594;23.414;2023-07-20T15:58:22;94022.38;;;30.62;38.55
42705;BME280;28342;42.594;23.414;2023-07-20T16:00:55;94022.38;;;30.62;39.17
42705;BME280;28342;42.594;23.414;2023-07-20T16:03:22;94042.34;;;30.72;39.19
42705;BME280;28342;42.594;23.414;2023-07-20T16:05:49;94022.22;;;30.44;38.87
42705;BME280;28342;42.594;23.414;2023-07-20T16:08:14;94036.75;;;30.54;38.95
42705;BME280;28342;42.594;23.414;2023-07-20T16:10:41;94053.66;;;30.40;39.22
42705;BME280;28342;42.594;23.414;2023-07-20T16:13:06;94050.09;;;30.30;39.02
42705;BME280;28342;42.594;23.414;2023-07-20T16:15:42;94054.03;;;30.29;39.42
42705;BME280;28342;42.594;23.414;2023-07-20T16:18:13;94057.47;;;30.20;39.40
42705;BME280;28342;42.594;23.414;2023-07-20T16:20:39;94058.06;;;30.02;38.88
42705;BME280;28342;42.594;23.414;2023-07-20T16:23:04;94076.00;;;30.03;38.73
42705;BME280;28342;42.594;23.414;2023-07-20T16:25:31;94073.19;;;29.94;39.20
42705;BME280;28342;42.594;23.414;2023-07-20T16:27:58;94073.44;;;29.87;39.08
42705;BME280;28342;42.594;23.414;2023-07-20T16:30:24;94078.22;;;29.83;38.82
42705;BME280;28342;42.594;23.414;2023-07-20T16:32:49;94074.44;;;29.68;39.25
42705;BME280;28342;42.594;23.414;2023-07-20T16:35:15;94076.94;;;29.75;39.03
42705;BME280;28342;42.594;23.414;2023-07-20T16:37:40;94084.84;;;29.73;39.49
42705;BME280;28342;42.594;23.414;2023-07-20T16:40:13;94066.06;;;29.50;39.13
42705;BME280;28342;42.594;23.414;2023-07-20T16:42:41;94089.66;;;29.43;39.23
42705;BME280;28342;42.594;23.414;2023-07-20T16:45:07;94090.94;;;29.39;39.12
42705;BME280;28342;42.594;23.414;2023-07-20T16:47:32;94092.06;;;29.29;39.81
42705;BME280;28342;42.594;23.414;2023-07-20T16:50:03;94096.50;;;29.23;39.36
42705;BME280;28342;42.594;23.414;2023-07-20T16:52:30;94102.75;;;29.23;39.87
42705;BME280;28342;42.594;23.414;2023-07-20T16:54:55;94097.38;;;29.20;40.41
42705;BME280;28342;42.594;23.414;2023-07-20T16:57:21;94098.81;;;29.11;40.50
42705;BME280;28342;42.594;23.414;2023-07-20T16:59:47;94097.50;;;29.03;40.41
42705;BME280;28342;42.594;23.414;2023-07-20T17:02:13;94106.13;;;29.02;41.17
42705;BME280;28342;42.594;23.414;2023-07-20T17:04:39;94101.97;;;29.10;41.04
42705;BME280;28342;42.594;23.414;2023-07-20T17:07:05;94111.72;;;29.11;41.24
42705;BME280;28342;42.594;23.414;2023-07-20T17:09:31;94108.09;;;29.14;41.22
42705;BME280;28342;42.594;23.414;2023-07-20T17:11:59;94090.47;;;28.90;41.49
42705;BME280;28342;42.594;23.414;2023-07-20T17:14:25;94086.72;;;28.83;41.50
42705;BME280;28342;42.594;23.414;2023-07-20T17:16:51;94110.06;;;29.01;41.80
42705;BME280;28342;42.594;23.414;2023-07-20T17:19:17;94122.19;;;29.00;42.11
42705;BME280;28342;42.594;23.414;2023-07-20T17:21:44;94112.13;;;28.97;42.50
42705;BME280;28342;42.594;23.414;2023-07-20T17:24:10;94110.78;;;28.89;42.63
42705;BME280;28342;42.594;23.414;2023-07-20T17:26:36;94099.19;;;28.84;42.58
42705;BME280;28342;42.594;23.414;2023-07-20T17:29:01;94116.59;;;29.03;42.49
42705;BME280;28342;42.594;23.414;2023-07-20T17:31:28;94116.91;;;28.93;42.58
42705;BME280;28342;42.594;23.414;2023-07-20T17:33:54;94119.97;;;28.95;42.59
42705;BME280;28342;42.594;23.414;2023-07-20T17:36:20;94130.69;;;29.02;42.73
42705;BME280;28342;42.594;23.414;2023-07-20T17:38:47;94120.84;;;28.92;43.21
42705;BME280;28342;42.594;23.414;2023-07-20T17:41:13;94127.31;;;28.98;43.14
42705;BME280;28342;42.594;23.414;2023-07-20T17:43:38;94140.50;;;28.86;43.08
42705;BME280;28342;42.594;23.414;2023-07-20T17:46:04;94136.38;;;28.78;43.46
42705;BME280;28342;42.594;23.414;2023-07-20T17:48:29;94139.13;;;28.78;44.17
42705;BME280;28342;42.594;23.414;2023-07-20T17:50:55;94144.34;;;28.73;44.52
42705;BME280;28342;42.594;23.414;2023-07-20T17:53:20;94146.91;;;28.51;45.54
42705;BME280;28342;42.594;23.414;2023-07-20T17:55:46;94149.38;;;28.45;45.82
42705;BME280;28342;42.594;23.414;2023-07-20T17:58:12;94144.78;;;28.42;46.81